Saturday, December 20, 2014, 10:44 AM EST
Back to Local

KGKJ, Port Meadville Airport

Location: Meadville, PA, United States Lat: 41.633
Local Time: 10:44 AM EST (15:44 GMT) Lon: -80.217
Time Zone: US/Eastern Elev: 1400 ft

Show me the last for .
Show Coded

Time T Td Feel RH Dir Speed Gust Alt SLP Vis Weather Sky Remarks
2014-12-20 09:53 28 19 24 68 10° 3 - 30.25 30.29 10 OVC018 None
2014-12-20 08:53 27 20 23 74 360° 3 - 30.25 30.29 10 OVC016 None
2014-12-20 07:53 27 20 - 74 - Calm - 30.24 30.29 10 OVC019 None
2014-12-20 06:53 27 19 - 71 - Calm - 30.25 30.29 10 OVC020 6-hr Min Temp (7am): 27.0°F
6-hr Max Temp (7am): 27.0°F
2014-12-20 05:53 27 19 22 71 280° 5 - 30.24 30.29 10 OVC021 None
2014-12-20 04:53 27 19 22 71 Variable 5 - 30.23 30.28 10 OVC020 None
2014-12-20 03:53 27 20 23 74 260° 3 - 30.22 30.27 10 OVC019 None
2014-12-20 02:53 27 20 - 74 - Calm - 30.22 30.27 10 OVC020 None
2014-12-20 01:53 27 20 22 74 260° 5 - 30.20 30.25 10 OVC021 None
2014-12-20 00:53 27 19 20 71 340° 6 - 30.20 30.25 10 OVC022 6-hr Min Temp (1am): 26.1°F
6-hr Max Temp (1am): 27.0°F
2014-12-19 23:53 27 19 22 71 280° 5 - 30.21 30.27 10 OVC023 24-hr Min Temp (12am): 25.0°F
24-hr Max Temp (12am): 30.0°F
2014-12-19 22:53 26 19 - 74 - Calm - 30.23 30.28 10 OVC024 None
2014-12-19 21:53 27 18 22 68 280° 5 - 30.24 30.29 10 OVC024 None
2014-12-19 20:53 27 18 20 68 260° 6 - 30.25 30.30 10 OVC023 None
2014-12-19 19:53 27 18 20 68 290° 6 - 30.24 30.29 10 OVC022 None
2014-12-19 18:53 26 19 22 74 300° 3 - 30.23 30.27 10 OVC022 6-hr Min Temp (7pm): 25.0°F
6-hr Max Temp (7pm): 30.0°F
2014-12-19 18:03 25 18 21 74 320° 3 - 30.22 - 10 BKN023 None
2014-12-19 17:53 25 17 21 71 310° 3 - 30.22 30.27 10 SCT023 None
2014-12-19 16:53 26 18 19 70 290° 6 - 30.20 30.25 10 CLR None
2014-12-19 15:53 27 18 19 68 300° 7 - 30.18 30.23 10 CLR None
2014-12-19 14:53 29 20 20 68 290° 10 - 30.17 30.21 10 FEW023 None
2014-12-19 14:13 29 20 21 68 300° 8 - 30.16 - 10 FEW022 None
2014-12-19 13:53 28 19 20 68 330° 8 - 30.16 30.21 10 BKN021 None
2014-12-19 12:53 28 21 22 74 Variable 6 - 30.16 30.21 10 OVC021 6-hr Precip Total (1pm): 0.00"
6-hr Min Temp (1pm): 27.0°F
6-hr Max Temp (1pm): 28.0°F
2014-12-19 11:53 27 21 17 77 340° 10 - 30.16 30.20 9 OVC020 None
2014-12-19 10:53 27 22 19 80 320° 8 - 30.17 30.22 5 HZ FEW013 OVC022 1-hr Precip Total: Trace

Support USWX by starting your Amazon purchase here.